sensor_id;sensor_type;location;lat;lon;timestamp;pressure;altitude;pressure_sealevel;temperature;humidity
64602;BME280;51013;42.630;23.192;2022-07-03T00:00:36;92875.66;;;19.96;78.54
64602;BME280;51013;42.630;23.192;2022-07-03T00:03:03;92869.94;;;20.05;78.17
64602;BME280;51013;42.630;23.192;2022-07-03T00:05:31;92831.84;;;19.68;78.11
64602;BME280;51013;42.630;23.192;2022-07-03T00:07:58;92868.78;;;19.98;77.89
64602;BME280;51013;42.630;23.192;2022-07-03T00:10:25;92872.22;;;19.99;77.41
64602;BME280;51013;42.630;23.192;2022-07-03T00:12:53;92873.75;;;19.89;77.95
64602;BME280;51013;42.630;23.192;2022-07-03T00:15:21;92863.88;;;19.79;78.47
64602;BME280;51013;42.630;23.192;2022-07-03T00:17:49;92863.09;;;19.78;78.46
64602;BME280;51013;42.630;23.192;2022-07-03T00:20:16;92862.34;;;19.71;78.69
64602;BME280;51013;42.630;23.192;2022-07-03T00:22:43;92855.06;;;19.68;78.53
64602;BME280;51013;42.630;23.192;2022-07-03T00:25:12;92866.09;;;19.62;78.49
64602;BME280;51013;42.630;23.192;2022-07-03T00:27:43;92874.84;;;19.67;78.77
64602;BME280;51013;42.630;23.192;2022-07-03T00:30:10;92865.34;;;19.69;78.20
64602;BME280;51013;42.630;23.192;2022-07-03T00:32:40;92858.88;;;19.59;78.82
64602;BME280;51013;42.630;23.192;2022-07-03T00:35:08;92826.13;;;19.23;78.50
64602;BME280;51013;42.630;23.192;2022-07-03T00:37:37;92862.28;;;19.46;78.72
64602;BME280;51013;42.630;23.192;2022-07-03T00:40:05;92843.25;;;19.40;78.93
64602;BME280;51013;42.630;23.192;2022-07-03T00:42:34;92834.13;;;19.41;78.77
64602;BME280;51013;42.630;23.192;2022-07-03T00:45:08;92853.91;;;19.40;78.88
64602;BME280;51013;42.630;23.192;2022-07-03T00:47:35;92847.44;;;19.37;79.12
64602;BME280;51013;42.630;23.192;2022-07-03T00:50:07;92845.53;;;19.34;79.03
64602;BME280;51013;42.630;23.192;2022-07-03T00:52:36;92846.66;;;19.33;79.21
64602;BME280;51013;42.630;23.192;2022-07-03T00:55:09;92838.28;;;19.28;78.96
64602;BME280;51013;42.630;23.192;2022-07-03T00:57:44;92833.34;;;19.26;78.88
64602;BME280;51013;42.630;23.192;2022-07-03T01:00:12;92818.13;;;19.23;78.89
64602;BME280;51013;42.630;23.192;2022-07-03T01:02:56;92827.63;;;19.28;79.09
64602;BME280;51013;42.630;23.192;2022-07-03T01:05:35;92826.13;;;19.23;79.01
64602;BME280;51013;42.630;23.192;2022-07-03T01:08:11;92818.50;;;19.25;78.74
64602;BME280;51013;42.630;23.192;2022-07-03T01:10:45;92787.31;;;19.04;79.34
64602;BME280;51013;42.630;23.192;2022-07-03T01:13:19;92817.75;;;19.10;79.02
64602;BME280;51013;42.630;23.192;2022-07-03T01:15:54;92813.53;;;19.06;79.07
64602;BME280;51013;42.630;23.192;2022-07-03T01:18:35;92812.41;;;19.07;79.28
64602;BME280;51013;42.630;23.192;2022-07-03T01:21:10;92809.34;;;19.01;79.69
64602;BME280;51013;42.630;23.192;2022-07-03T01:26:39;92824.16;;;18.88;79.66
64602;BME280;51013;42.630;23.192;2022-07-03T01:29:14;92821.09;;;18.82;79.73
64602;BME280;51013;42.630;23.192;2022-07-03T01:31:48;92819.50;;;18.77;80.54
64602;BME280;51013;42.630;23.192;2022-07-03T01:34:17;92796.69;;;18.66;80.08
64602;BME280;51013;42.630;23.192;2022-07-03T01:36:47;92802.75;;;18.62;80.25
64602;BME280;51013;42.630;23.192;2022-07-03T01:39:16;92817.22;;;18.72;80.29
64602;BME280;51013;42.630;23.192;2022-07-03T01:41:48;92738.41;;;18.25;80.21
64602;BME280;51013;42.630;23.192;2022-07-03T01:44:18;92791.72;;;18.53;80.16
64602;BME280;51013;42.630;23.192;2022-07-03T01:46:47;92788.31;;;18.60;79.52
64602;BME280;51013;42.630;23.192;2022-07-03T01:49:14;92629.09;;;17.49;79.48
64602;BME280;51013;42.630;23.192;2022-07-03T01:51:42;92821.78;;;18.72;79.44
64602;BME280;51013;42.630;23.192;2022-07-03T01:54:10;92820.63;;;18.69;79.57
64602;BME280;51013;42.630;23.192;2022-07-03T01:56:38;92762.72;;;18.30;80.08
64602;BME280;51013;42.630;23.192;2022-07-03T01:59:07;92817.56;;;18.60;80.54
64602;BME280;51013;42.630;23.192;2022-07-03T02:01:41;92822.09;;;18.52;80.92
64602;BME280;51013;42.630;23.192;2022-07-03T02:04:16;92814.50;;;18.47;80.30
64602;BME280;51013;42.630;23.192;2022-07-03T02:06:54;92802.25;;;18.32;80.77
64602;BME280;51013;42.630;23.192;2022-07-03T02:09:26;92819.41;;;18.41;80.83
64602;BME280;51013;42.630;23.192;2022-07-03T02:11:58;92828.91;;;18.39;80.70
64602;BME280;51013;42.630;23.192;2022-07-03T02:14:32;92780.13;;;18.10;80.89
64602;BME280;51013;42.630;23.192;2022-07-03T02:17:03;92805.97;;;18.16;81.84
64602;BME280;51013;42.630;23.192;2022-07-03T02:19:41;92803.28;;;18.09;82.38
64602;BME280;51013;42.630;23.192;2022-07-03T02:22:11;92811.28;;;18.16;81.67
64602;BME280;51013;42.630;23.192;2022-07-03T02:24:42;92807.53;;;18.21;81.95
64602;BME280;51013;42.630;23.192;2022-07-03T02:27:15;92811.69;;;18.22;81.48
64602;BME280;51013;42.630;23.192;2022-07-03T02:29:47;92799.88;;;18.09;81.94
64602;BME280;51013;42.630;23.192;2022-07-03T02:32:20;92813.94;;;18.16;81.84
64602;BME280;51013;42.630;23.192;2022-07-03T02:34:58;92778.78;;;17.82;82.58
64602;BME280;51013;42.630;23.192;2022-07-03T02:37:29;92806.25;;;17.97;82.47
64602;BME280;51013;42.630;23.192;2022-07-03T02:40:03;92807.78;;;17.98;83.03
64602;BME280;51013;42.630;23.192;2022-07-03T02:42:37;92796.00;;;17.95;81.97
64602;BME280;51013;42.630;23.192;2022-07-03T02:45:09;92818.88;;;18.11;82.25
64602;BME280;51013;42.630;23.192;2022-07-03T02:47:47;92816.91;;;18.00;82.15
64602;BME280;51013;42.630;23.192;2022-07-03T02:50:20;92828.38;;;18.12;82.06
64602;BME280;51013;42.630;23.192;2022-07-03T02:52:56;92831.44;;;18.17;81.94
64602;BME280;51013;42.630;23.192;2022-07-03T02:55:40;92783.72;;;17.80;81.72
64602;BME280;51013;42.630;23.192;2022-07-03T03:01:20;92844.66;;;18.03;82.19
64602;BME280;51013;42.630;23.192;2022-07-03T03:04:00;92814.50;;;17.81;82.37
64602;BME280;51013;42.630;23.192;2022-07-03T03:06:29;92846.13;;;17.97;82.11
64602;BME280;51013;42.630;23.192;2022-07-03T03:09:02;92822.47;;;17.81;82.36
64602;BME280;51013;42.630;23.192;2022-07-03T03:11:34;92791.91;;;17.53;82.62
64602;BME280;51013;42.630;23.192;2022-07-03T03:14:07;92856.38;;;17.95;82.86
64602;BME280;51013;42.630;23.192;2022-07-03T03:16:41;92852.19;;;17.97;82.83
64602;BME280;51013;42.630;23.192;2022-07-03T03:19:13;92846.03;;;17.86;82.80
64602;BME280;51013;42.630;23.192;2022-07-03T03:21:52;92856.41;;;18.02;nan
64602;BME280;51013;42.630;23.192;2022-07-03T03:24:22;92858.66;;;18.00;82.61
64602;BME280;51013;42.630;23.192;2022-07-03T03:26:50;92855.63;;;17.98;82.54
64602;BME280;51013;42.630;23.192;2022-07-03T03:29:18;92856.75;;;17.97;83.07
64602;BME280;51013;42.630;23.192;2022-07-03T03:31:47;92853.00;;;18.01;82.77
64602;BME280;51013;42.630;23.192;2022-07-03T03:34:15;92841.59;;;18.01;82.72
64602;BME280;51013;42.630;23.192;2022-07-03T03:36:42;92849.25;;;18.10;82.46
64602;BME280;51013;42.630;23.192;2022-07-03T03:39:10;92853.38;;;18.04;82.91
64602;BME280;51013;42.630;23.192;2022-07-03T03:41:39;92840.06;;;17.96;83.14
64602;BME280;51013;42.630;23.192;2022-07-03T03:44:07;92851.88;;;18.06;82.74
64602;BME280;51013;42.630;23.192;2022-07-03T03:46:34;92856.50;;;18.13;82.35
64602;BME280;51013;42.630;23.192;2022-07-03T03:49:03;92819.88;;;17.92;82.58
64602;BME280;51013;42.630;23.192;2022-07-03T03:51:31;92834.78;;;18.04;82.98
64602;BME280;51013;42.630;23.192;2022-07-03T03:53:59;92860.66;;;18.14;83.23
64602;BME280;51013;42.630;23.192;2022-07-03T03:56:29;92826.72;;;17.89;83.45
64602;BME280;51013;42.630;23.192;2022-07-03T03:58:56;92835.88;;;17.95;83.67
64602;BME280;51013;42.630;23.192;2022-07-03T04:01:23;92869.09;;;18.23;83.18
64602;BME280;51013;42.630;23.192;2022-07-03T04:03:50;92870.97;;;18.22;83.36
64602;BME280;51013;42.630;23.192;2022-07-03T04:06:20;92835.13;;;18.02;83.09
64602;BME280;51013;42.630;23.192;2022-07-03T04:08:47;92815.31;;;17.89;83.47
64602;BME280;51013;42.630;23.192;2022-07-03T04:11:15;92849.66;;;18.15;83.83
64602;BME280;51013;42.630;23.192;2022-07-03T04:13:43;92869.09;;;18.30;83.95
64602;BME280;51013;42.630;23.192;2022-07-03T04:16:11;92872.53;;;18.34;84.33
64602;BME280;51013;42.630;23.192;2022-07-03T04:18:39;92853.53;;;18.32;83.57
64602;BME280;51013;42.630;23.192;2022-07-03T04:21:06;92861.16;;;18.34;83.63
64602;BME280;51013;42.630;23.192;2022-07-03T04:23:35;92850.16;;;18.42;84.47
64602;BME280;51013;42.630;23.192;2022-07-03T04:26:03;92869.97;;;18.49;84.39
64602;BME280;51013;42.630;23.192;2022-07-03T04:28:30;92796.47;;;18.12;84.59
64602;BME280;51013;42.630;23.192;2022-07-03T04:30:58;92856.72;;;18.59;84.78
64602;BME280;51013;42.630;23.192;2022-07-03T04:33:26;92801.81;;;18.22;84.83
64602;BME280;51013;42.630;23.192;2022-07-03T04:35:53;92858.66;;;18.66;84.91
64602;BME280;51013;42.630;23.192;2022-07-03T04:38:20;92811.78;;;18.40;84.79
64602;BME280;51013;42.630;23.192;2022-07-03T04:40:49;92862.84;;;18.71;84.83
64602;BME280;51013;42.630;23.192;2022-07-03T04:43:17;92852.19;;;18.71;84.99
64602;BME280;51013;42.630;23.192;2022-07-03T04:45:44;92869.78;;;18.86;84.94
64602;BME280;51013;42.630;23.192;2022-07-03T04:48:12;92863.31;;;18.91;85.21
64602;BME280;51013;42.630;23.192;2022-07-03T04:50:39;92854.94;;;18.85;85.38
64602;BME280;51013;42.630;23.192;2022-07-03T04:53:06;92810.34;;;18.60;83.82
64602;BME280;51013;42.630;23.192;2022-07-03T04:55:34;92788.72;;;18.66;83.66
64602;BME280;51013;42.630;23.192;2022-07-03T04:58:03;92865.25;;;19.12;84.52
64602;BME280;51013;42.630;23.192;2022-07-03T05:00:30;92845.09;;;19.07;84.60
64602;BME280;51013;42.630;23.192;2022-07-03T05:02:58;92859.59;;;19.24;84.57
64602;BME280;51013;42.630;23.192;2022-07-03T05:05:26;92864.56;;;19.36;85.50
64602;BME280;51013;42.630;23.192;2022-07-03T05:07:53;92856.19;;;19.45;85.01
64602;BME280;51013;42.630;23.192;2022-07-03T05:10:20;92817.38;;;19.23;85.12
64602;BME280;51013;42.630;23.192;2022-07-03T05:12:48;92829.16;;;19.39;84.46
64602;BME280;51013;42.630;23.192;2022-07-03T05:15:18;92799.50;;;19.30;84.60
64602;BME280;51013;42.630;23.192;2022-07-03T05:17:45;92851.28;;;19.72;83.07
64602;BME280;51013;42.630;23.192;2022-07-03T05:20:13;92818.91;;;19.56;82.07
64602;BME280;51013;42.630;23.192;2022-07-03T05:22:54;92858.91;;;19.85;82.74
64602;BME280;51013;42.630;23.192;2022-07-03T05:25:22;92816.25;;;19.59;82.32
64602;BME280;51013;42.630;23.192;2022-07-03T05:27:50;92848.22;;;19.85;82.42
64602;BME280;51013;42.630;23.192;2022-07-03T05:30:21;92856.22;;;20.06;80.49
64602;BME280;51013;42.630;23.192;2022-07-03T05:32:49;92781.97;;;19.61;81.15
64602;BME280;51013;42.630;23.192;2022-07-03T05:35:17;92858.47;;;20.18;80.76
64602;BME280;51013;42.630;23.192;2022-07-03T05:37:45;92819.63;;;20.03;81.07
64602;BME280;51013;42.630;23.192;2022-07-03T05:40:13;92855.41;;;20.34;80.54
64602;BME280;51013;42.630;23.192;2022-07-03T05:42:39;92861.47;;;20.42;80.64
64602;BME280;51013;42.630;23.192;2022-07-03T05:45:07;92847.78;;;20.40;79.89
64602;BME280;51013;42.630;23.192;2022-07-03T05:47:36;92855.34;;;20.52;78.92
64602;BME280;51013;42.630;23.192;2022-07-03T05:50:04;92849.59;;;20.57;78.75
64602;BME280;51013;42.630;23.192;2022-07-03T05:52:31;92828.69;;;20.49;79.33
64602;BME280;51013;42.630;23.192;2022-07-03T05:54:58;92824.06;;;20.56;78.65
64602;BME280;51013;42.630;23.192;2022-07-03T05:57:26;92834.72;;;20.71;79.33
64602;BME280;51013;42.630;23.192;2022-07-03T05:59:53;92846.53;;;20.77;79.20
64602;BME280;51013;42.630;23.192;2022-07-03T06:02:20;92840.75;;;20.86;78.79
64602;BME280;51013;42.630;23.192;2022-07-03T06:04:50;92863.16;;;21.10;78.68
64602;BME280;51013;42.630;23.192;2022-07-03T06:07:17;92864.22;;;21.23;79.45
64602;BME280;51013;42.630;23.192;2022-07-03T06:09:47;92845.94;;;21.14;78.06
64602;BME280;51013;42.630;23.192;2022-07-03T06:12:15;92861.50;;;21.27;77.50
64602;BME280;51013;42.630;23.192;2022-07-03T06:14:42;92849.03;;;21.06;77.40
64602;BME280;51013;42.630;23.192;2022-07-03T06:17:09;92868.75;;;21.30;77.07
64602;BME280;51013;42.630;23.192;2022-07-03T06:19:37;92818.19;;;21.01;77.01
64602;BME280;51013;42.630;23.192;2022-07-03T06:22:05;92865.66;;;21.38;75.33
64602;BME280;51013;42.630;23.192;2022-07-03T06:24:32;92872.47;;;21.50;75.16
64602;BME280;51013;42.630;23.192;2022-07-03T06:27:00;92871.28;;;21.58;75.52
64602;BME280;51013;42.630;23.192;2022-07-03T06:29:27;92870.06;;;21.70;75.52
64602;BME280;51013;42.630;23.192;2022-07-03T06:31:54;92873.38;;;21.85;74.40
64602;BME280;51013;42.630;23.192;2022-07-03T06:34:21;92864.19;;;21.86;73.13
64602;BME280;51013;42.630;23.192;2022-07-03T06:54:20;92855.97;;;22.53;70.10
64602;BME280;51013;42.630;23.192;2022-07-03T06:56:47;92828.19;;;22.39;69.15
64602;BME280;51013;42.630;23.192;2022-07-03T06:59:14;92793.53;;;22.21;69.71
64602;BME280;51013;42.630;23.192;2022-07-03T07:01:42;92837.63;;;22.51;70.79
64602;BME280;51013;42.630;23.192;2022-07-03T07:04:10;92846.56;;;22.72;72.61
64602;BME280;51013;42.630;23.192;2022-07-03T07:06:38;92844.16;;;22.81;72.38
64602;BME280;51013;42.630;23.192;2022-07-03T07:09:05;92850.88;;;22.93;73.69
64602;BME280;51013;42.630;23.192;2022-07-03T07:11:35;92823.56;;;22.74;72.76
64602;BME280;51013;42.630;23.192;2022-07-03T07:14:02;92821.53;;;22.86;73.58
64602;BME280;51013;42.630;23.192;2022-07-03T07:16:29;92821.84;;;22.91;75.01
64602;BME280;51013;42.630;23.192;2022-07-03T07:18:55;92847.56;;;23.16;74.73
64602;BME280;51013;42.630;23.192;2022-07-03T07:21:22;92794.03;;;22.82;73.95
64602;BME280;51013;42.630;23.192;2022-07-03T07:23:49;92850.13;;;23.23;74.26
64602;BME280;51013;42.630;23.192;2022-07-03T07:26:16;92857.59;;;23.39;73.55
64602;BME280;51013;42.630;23.192;2022-07-03T07:28:46;92859.88;;;23.40;74.38
64602;BME280;51013;42.630;23.192;2022-07-03T07:31:13;92854.84;;;23.43;72.78
64602;BME280;51013;42.630;23.192;2022-07-03T07:33:41;92852.19;;;23.43;72.15
64602;BME280;51013;42.630;23.192;2022-07-03T07:36:08;92826.31;;;23.29;72.77
64602;BME280;51013;42.630;23.192;2022-07-03T07:38:35;92852.47;;;23.48;70.92
64602;BME280;51013;42.630;23.192;2022-07-03T07:41:02;92843.63;;;23.51;71.93
64602;BME280;51013;42.630;23.192;2022-07-03T07:43:29;92851.88;;;23.64;71.27
64602;BME280;51013;42.630;23.192;2022-07-03T07:45:57;92847.59;;;23.67;70.26
64602;BME280;51013;42.630;23.192;2022-07-03T07:48:24;92837.38;;;23.58;70.34
64602;BME280;51013;42.630;23.192;2022-07-03T07:50:51;92846.31;;;23.78;70.79
64602;BME280;51013;42.630;23.192;2022-07-03T07:53:18;92851.69;;;23.78;71.93
64602;BME280;51013;42.630;23.192;2022-07-03T07:55:45;92855.75;;;23.87;70.25
64602;BME280;51013;42.630;23.192;2022-07-03T07:58:12;92815.06;;;23.65;70.50
64602;BME280;51013;42.630;23.192;2022-07-03T08:00:39;92811.16;;;23.69;70.22
64602;BME280;51013;42.630;23.192;2022-07-03T08:03:29;92814.59;;;23.70;69.63
64602;BME280;51013;42.630;23.192;2022-07-03T08:06:13;92800.13;;;23.64;69.64
64602;BME280;51013;42.630;23.192;2022-07-03T08:08:40;92792.16;;;23.60;69.74
64602;BME280;51013;42.630;23.192;2022-07-03T08:11:07;92843.56;;;24.06;70.38
64602;BME280;51013;42.630;23.192;2022-07-03T08:13:34;92827.56;;;23.98;69.45
64602;BME280;51013;42.630;23.192;2022-07-03T08:16:01;92848.38;;;24.14;69.11
64602;BME280;51013;42.630;23.192;2022-07-03T08:18:29;92770.88;;;23.73;69.85
64602;BME280;51013;42.630;23.192;2022-07-03T08:20:57;92826.72;;;24.05;68.51
64602;BME280;51013;42.630;23.192;2022-07-03T08:23:23;92774.28;;;23.77;70.23
64602;BME280;51013;42.630;23.192;2022-07-03T08:25:50;92820.00;;;24.17;69.77
64602;BME280;51013;42.630;23.192;2022-07-03T08:28:17;92832.31;;;24.34;69.62
64602;BME280;51013;42.630;23.192;2022-07-03T08:30:44;92849.72;;;24.50;67.99
64602;BME280;51013;42.630;23.192;2022-07-03T08:33:11;92815.56;;;24.27;67.76
64602;BME280;51013;42.630;23.192;2022-07-03T08:35:41;92855.84;;;24.50;68.94
64602;BME280;51013;42.630;23.192;2022-07-03T08:38:07;92833.19;;;24.51;68.16
64602;BME280;51013;42.630;23.192;2022-07-03T08:40:35;92851.22;;;24.71;67.78
64602;BME280;51013;42.630;23.192;2022-07-03T08:43:02;92855.97;;;24.83;66.25
64602;BME280;51013;42.630;23.192;2022-07-03T08:45:30;92821.34;;;24.69;66.70
64602;BME280;51013;42.630;23.192;2022-07-03T08:47:59;92845.22;;;24.83;65.38
64602;BME280;51013;42.630;23.192;2022-07-03T08:50:26;92841.50;;;24.97;68.28
64602;BME280;51013;42.630;23.192;2022-07-03T08:52:55;92826.91;;;24.98;65.89
64602;BME280;51013;42.630;23.192;2022-07-03T08:55:22;92836.69;;;25.08;65.38
64602;BME280;51013;42.630;23.192;2022-07-03T08:57:49;92781.72;;;24.73;65.09
64602;BME280;51013;42.630;23.192;2022-07-03T09:00:17;92788.81;;;24.83;63.88
64602;BME280;51013;42.630;23.192;2022-07-03T09:02:46;92836.84;;;25.17;64.63
64602;BME280;51013;42.630;23.192;2022-07-03T09:05:15;92835.97;;;25.24;64.69
64602;BME280;51013;42.630;23.192;2022-07-03T09:07:44;92802.63;;;25.02;65.61
64602;BME280;51013;42.630;23.192;2022-07-03T09:10:16;92822.59;;;25.21;64.47
64602;BME280;51013;42.630;23.192;2022-07-03T09:12:44;92847.53;;;25.41;64.38
64602;BME280;51013;42.630;23.192;2022-07-03T09:15:13;92805.16;;;25.29;62.47
64602;BME280;51013;42.630;23.192;2022-07-03T09:17:40;92821.91;;;25.53;65.07
64602;BME280;51013;42.630;23.192;2022-07-03T09:20:28;92804.56;;;25.54;63.88
64602;BME280;51013;42.630;23.192;2022-07-03T09:23:11;92839.06;;;25.92;65.81
64602;BME280;51013;42.630;23.192;2022-07-03T09:25:57;92825.88;;;25.97;63.99
64602;BME280;51013;42.630;23.192;2022-07-03T09:28:44;92829.38;;;26.11;62.54
64602;BME280;51013;42.630;23.192;2022-07-03T09:31:15;92698.38;;;25.29;64.53
64602;BME280;51013;42.630;23.192;2022-07-03T09:33:50;92833.69;;;26.37;60.72
64602;BME280;51013;42.630;23.192;2022-07-03T09:36:17;92832.66;;;26.48;59.42
64602;BME280;51013;42.630;23.192;2022-07-03T09:38:45;92833.22;;;26.55;59.05
64602;BME280;51013;42.630;23.192;2022-07-03T09:41:13;92833.63;;;26.70;60.23
64602;BME280;51013;42.630;23.192;2022-07-03T09:43:44;92827.94;;;26.81;59.02
64602;BME280;51013;42.630;23.192;2022-07-03T09:46:11;92831.41;;;26.94;58.02
64602;BME280;51013;42.630;23.192;2022-07-03T09:48:40;92825.41;;;27.03;58.89
64602;BME280;51013;42.630;23.192;2022-07-03T09:51:16;92827.22;;;27.06;56.97
64602;BME280;51013;42.630;23.192;2022-07-03T09:53:51;92825.59;;;27.09;56.04
64602;BME280;51013;42.630;23.192;2022-07-03T09:56:22;92831.44;;;27.20;53.43
64602;BME280;51013;42.630;23.192;2022-07-03T09:59:03;92827.34;;;27.15;53.49
64602;BME280;51013;42.630;23.192;2022-07-03T10:01:31;92802.75;;;27.13;52.42
64602;BME280;51013;42.630;23.192;2022-07-03T10:04:10;92816.50;;;27.32;53.40
64602;BME280;51013;42.630;23.192;2022-07-03T10:06:46;92792.13;;;27.35;56.04
64602;BME280;51013;42.630;23.192;2022-07-03T10:09:15;92822.75;;;27.54;51.64
64602;BME280;51013;42.630;23.192;2022-07-03T10:11:45;92811.44;;;27.60;52.44
64602;BME280;51013;42.630;23.192;2022-07-03T10:14:14;92818.75;;;27.72;53.41
64602;BME280;51013;42.630;23.192;2022-07-03T10:16:41;92803.84;;;27.80;49.67
64602;BME280;51013;42.630;23.192;2022-07-03T10:19:13;92809.34;;;27.89;51.57
64602;BME280;51013;42.630;23.192;2022-07-03T10:21:42;92780.06;;;27.88;47.69
64602;BME280;51013;42.630;23.192;2022-07-03T10:24:11;92741.59;;;27.62;48.99
64602;BME280;51013;42.630;23.192;2022-07-03T10:26:39;92780.81;;;28.01;47.35
64602;BME280;51013;42.630;23.192;2022-07-03T10:29:10;92786.72;;;28.09;48.27
64602;BME280;51013;42.630;23.192;2022-07-03T10:31:46;92791.84;;;28.29;46.90
64602;BME280;51013;42.630;23.192;2022-07-03T10:34:17;92785.31;;;28.39;46.03
64602;BME280;51013;42.630;23.192;2022-07-03T10:36:46;92783.81;;;28.38;43.72
64602;BME280;51013;42.630;23.192;2022-07-03T10:39:23;92752.88;;;28.17;44.84
64602;BME280;51013;42.630;23.192;2022-07-03T10:41:54;92757.69;;;28.35;46.31
64602;BME280;51013;42.630;23.192;2022-07-03T10:44:51;92766.59;;;28.67;49.99
64602;BME280;51013;42.630;23.192;2022-07-03T10:47:39;92716.88;;;28.42;43.95
64602;BME280;51013;42.630;23.192;2022-07-03T10:50:09;92646.94;;;28.13;44.58
64602;BME280;51013;42.630;23.192;2022-07-03T10:52:38;92762.25;;;28.91;45.46
64602;BME280;51013;42.630;23.192;2022-07-03T10:55:06;92744.88;;;29.02;44.61
64602;BME280;51013;42.630;23.192;2022-07-03T10:57:33;92718.41;;;28.96;43.90
64602;BME280;51013;42.630;23.192;2022-07-03T11:00:08;92758.53;;;29.29;41.55
64602;BME280;51013;42.630;23.192;2022-07-03T11:02:37;92746.81;;;29.32;38.94
64602;BME280;51013;42.630;23.192;2022-07-03T11:05:26;92747.63;;;29.51;40.83
64602;BME280;51013;42.630;23.192;2022-07-03T11:08:10;92723.69;;;29.50;40.65
64602;BME280;51013;42.630;23.192;2022-07-03T11:10:42;92724.91;;;29.58;38.03
64602;BME280;51013;42.630;23.192;2022-07-03T11:13:19;92745.16;;;29.85;40.07
64602;BME280;51013;42.630;23.192;2022-07-03T11:15:54;92745.00;;;29.88;37.74
64602;BME280;51013;42.630;23.192;2022-07-03T11:18:26;92745.16;;;30.03;39.00
64602;BME280;51013;42.630;23.192;2022-07-03T11:24:24;92737.50;;;30.48;41.54
64602;BME280;51013;42.630;23.192;2022-07-03T11:27:12;92724.34;;;30.65;37.48
64602;BME280;51013;42.630;23.192;2022-07-03T11:29:39;92707.81;;;30.53;37.76
64602;BME280;51013;42.630;23.192;2022-07-03T11:35:07;92610.47;;;30.13;38.61
64602;BME280;51013;42.630;23.192;2022-07-03T11:37:35;92724.13;;;30.96;35.33
64602;BME280;51013;42.630;23.192;2022-07-03T11:40:03;92705.00;;;31.00;38.17
64602;BME280;51013;42.630;23.192;2022-07-03T11:42:33;92687.13;;;31.17;39.62
64602;BME280;51013;42.630;23.192;2022-07-03T11:45:01;92705.88;;;31.39;35.51
64602;BME280;51013;42.630;23.192;2022-07-03T11:47:31;92633.75;;;30.90;37.22
64602;BME280;51013;42.630;23.192;2022-07-03T11:49:59;92630.84;;;31.03;36.46
64602;BME280;51013;42.630;23.192;2022-07-03T11:52:33;92716.41;;;31.94;36.25
64602;BME280;51013;42.630;23.192;2022-07-03T11:55:00;92712.66;;;32.16;35.99
64602;BME280;51013;42.630;23.192;2022-07-03T11:57:26;92634.91;;;31.80;36.18
64602;BME280;51013;42.630;23.192;2022-07-03T12:02:29;92680.59;;;32.50;33.21
64602;BME280;51013;42.630;23.192;2022-07-03T12:04:56;92719.06;;;32.72;34.20
64602;BME280;51013;42.630;23.192;2022-07-03T12:07:23;92581.50;;;31.77;35.56
64602;BME280;51013;42.630;23.192;2022-07-03T12:09:52;92669.97;;;32.61;33.36
64602;BME280;51013;42.630;23.192;2022-07-03T12:12:23;92671.94;;;32.61;33.26
64602;BME280;51013;42.630;23.192;2022-07-03T12:14:55;92669.97;;;32.61;33.20
64602;BME280;51013;42.630;23.192;2022-07-03T12:17:24;92702.00;;;33.02;32.62
64602;BME280;51013;42.630;23.192;2022-07-03T12:19:52;92683.59;;;32.97;35.49
64602;BME280;51013;42.630;23.192;2022-07-03T12:22:29;92685.34;;;33.29;34.30
64602;BME280;51013;42.630;23.192;2022-07-03T12:25:00;92694.25;;;33.65;33.15
64602;BME280;51013;42.630;23.192;2022-07-03T12:27:28;92668.00;;;33.47;32.36
64602;BME280;51013;42.630;23.192;2022-07-03T12:29:56;92665.91;;;33.57;32.55
64602;BME280;51013;42.630;23.192;2022-07-03T12:32:23;92607.97;;;33.36;30.64
64602;BME280;51013;42.630;23.192;2022-07-03T12:34:50;92663.00;;;33.81;30.11
64602;BME280;51013;42.630;23.192;2022-07-03T12:37:31;92584.16;;;33.31;30.79
64602;BME280;51013;42.630;23.192;2022-07-03T12:40:00;92615.00;;;33.63;29.96
64602;BME280;51013;42.630;23.192;2022-07-03T12:42:27;92666.75;;;34.30;32.12
64602;BME280;51013;42.630;23.192;2022-07-03T12:44:55;92698.84;;;34.41;31.39
64602;BME280;51013;42.630;23.192;2022-07-03T12:47:24;92658.00;;;34.00;30.86
64602;BME280;51013;42.630;23.192;2022-07-03T12:49:55;92656.91;;;34.39;30.02
64602;BME280;51013;42.630;23.192;2022-07-03T12:52:23;92677.84;;;34.47;32.50
64602;BME280;51013;42.630;23.192;2022-07-03T12:54:50;92601.56;;;34.27;31.06
64602;BME280;51013;42.630;23.192;2022-07-03T12:57:21;92693.88;;;35.29;32.09
64602;BME280;51013;42.630;23.192;2022-07-03T13:00:07;92675.09;;;35.43;29.58
64602;BME280;51013;42.630;23.192;2022-07-03T13:02:36;92692.19;;;35.81;28.92
64602;BME280;51013;42.630;23.192;2022-07-03T13:05:14;92674.34;;;35.97;29.20
64602;BME280;51013;42.630;23.192;2022-07-03T13:07:42;92612.66;;;35.67;29.34
64602;BME280;51013;42.630;23.192;2022-07-03T13:10:10;92614.44;;;35.27;27.44
64602;BME280;51013;42.630;23.192;2022-07-03T13:12:50;92702.47;;;36.08;28.78
64602;BME280;51013;42.630;23.192;2022-07-03T13:15:17;92694.28;;;36.08;27.89
64602;BME280;51013;42.630;23.192;2022-07-03T13:17:56;92658.34;;;35.73;28.97
64602;BME280;51013;42.630;23.192;2022-07-03T13:20:24;92613.88;;;35.18;30.13
64602;BME280;51013;42.630;23.192;2022-07-03T13:22:54;92649.53;;;35.46;30.01
64602;BME280;51013;42.630;23.192;2022-07-03T13:25:22;92575.53;;;34.58;28.93
64602;BME280;51013;42.630;23.192;2022-07-03T13:27:52;92588.84;;;34.82;30.95
64602;BME280;51013;42.630;23.192;2022-07-03T13:30:28;92667.94;;;35.51;30.48
64602;BME280;51013;42.630;23.192;2022-07-03T13:32:55;92680.69;;;35.22;31.50
64602;BME280;51013;42.630;23.192;2022-07-03T13:35:22;92671.72;;;35.16;30.62
64602;BME280;51013;42.630;23.192;2022-07-03T13:37:49;92675.50;;;35.24;31.83